Friedens, Pennsylvania
Current Conditions -  °F | °C
As of 4:23 AM on Friday 24 Oct 2014 (Local Time) from KJST Reporting Station
Haze Haze  
Wind Chill: 36°   Ceiling: 400
Heat Index: 43°   Visibility: 6mi
Dew Point: 41°   Wind: 14mph
Humidity: 93%   Direction: 300°WNW
Pressure: 30.01"   Gusts: 21mph
Location:  40.05°N, 79°W
Report Text: KJST 240823Z AUTO 30012G18KT 6SM BR OVC004 06/05 A3001 RMK AO2 T00610050
Loading
Personal Weather Stations






























Interactive Weather Map
Tropical Storm Tracking
New forecast layout! Learn more

10-Day Weather Forecast

Advertisements
Track Severe Weather on mobile